createdAt,value
2023-05-19T00:02:16.367Z,99310.00
2023-05-19T00:05:05.861Z,99325.69
2023-05-19T00:07:47.020Z,99323.47
2023-05-19T00:10:33.996Z,99310.31
2023-05-19T00:13:18.136Z,99318.59
2023-05-19T00:15:45.364Z,99315.38
2023-05-19T00:18:14.288Z,99304.28
2023-05-19T00:20:41.490Z,99316.41
2023-05-19T00:23:08.527Z,99310.69
2023-05-19T00:25:35.508Z,99317.75
2023-05-19T00:28:03.353Z,99309.00
2023-05-19T00:30:30.893Z,99307.69
2023-05-19T00:32:58.243Z,99315.25
2023-05-19T00:35:25.349Z,99312.03
2023-05-19T00:37:52.354Z,99300.59
2023-05-19T00:40:19.552Z,99301.94
2023-05-19T00:42:46.518Z,99296.72
2023-05-19T00:45:13.510Z,99300.06
2023-05-19T00:47:40.420Z,99300.59
2023-05-19T00:50:07.717Z,99303.94
2023-05-19T00:52:34.892Z,99306.47
2023-05-19T00:55:01.949Z,99295.22
2023-05-19T00:57:28.973Z,99294.38
2023-05-19T00:59:56.738Z,99301.25
2023-05-19T01:02:24.328Z,99300.91
2023-05-19T01:05:14.656Z,99295.22
2023-05-19T01:08:08.373Z,99299.59
2023-05-19T01:10:48.354Z,99290.19
2023-05-19T01:13:41.966Z,99291.53
2023-05-19T01:16:26.682Z,99292.19
2023-05-19T01:19:41.188Z,99289.84
2023-05-19T01:22:23.132Z,99284.47
2023-05-19T01:25:21.971Z,99282.28
2023-05-19T01:28:07.541Z,99279.72
2023-05-19T01:30:39.197Z,99281.78
2023-05-19T01:33:09.717Z,99283.09
2023-05-19T01:35:38.427Z,99288.47
2023-05-19T01:38:09.600Z,99278.53
2023-05-19T01:40:41.764Z,99275.69
2023-05-19T01:43:12.087Z,99273.84
2023-05-19T01:45:40.405Z,99277.53
2023-05-19T01:48:10.097Z,99272.66
2023-05-19T01:50:38.183Z,99266.78
2023-05-19T01:53:05.392Z,99269.97
2023-05-19T01:55:32.669Z,99276.38
2023-05-19T01:58:17.971Z,99278.88
2023-05-19T02:01:06.297Z,99277.38
2023-05-19T02:03:53.579Z,99267.47
2023-05-19T02:06:31.440Z,99271.00
2023-05-19T02:09:05.434Z,99262.56
2023-05-19T02:11:42.503Z,99262.38
2023-05-19T02:14:18.104Z,99264.09
2023-05-19T02:16:47.932Z,99259.38
2023-05-19T02:19:37.172Z,99179.47
2023-05-19T02:22:04.260Z,99248.13
2023-05-19T02:24:31.189Z,99180.81
2023-05-19T02:26:58.111Z,99239.19
2023-05-19T02:29:25.043Z,99232.47
2023-05-19T02:31:52.092Z,99236.16
2023-05-19T02:34:19.260Z,99238.72
2023-05-19T02:36:46.225Z,99237.38
2023-05-19T02:39:13.273Z,99245.25
2023-05-19T02:41:40.214Z,99239.03
2023-05-19T02:44:07.808Z,99233.97
2023-05-19T02:46:34.847Z,99234.97
2023-05-19T02:49:01.820Z,99240.22
2023-05-19T02:51:28.857Z,99212.25
2023-05-19T02:53:55.906Z,99249.13
2023-05-19T02:56:22.921Z,99252.81
2023-05-19T02:58:49.927Z,99250.47
2023-05-19T03:01:16.926Z,99248.94
2023-05-19T03:03:44.040Z,99263.91
2023-05-19T03:06:11.028Z,99250.28
2023-05-19T03:08:40.071Z,99254.81
2023-05-19T03:11:08.496Z,99244.03
2023-05-19T03:13:35.932Z,99240.53
2023-05-19T03:16:03.733Z,99239.34
2023-05-19T03:18:30.971Z,99240.06
2023-05-19T03:20:57.988Z,99245.25
2023-05-19T03:23:24.973Z,99251.66
2023-05-19T03:25:52.190Z,99254.00
2023-05-19T03:28:19.133Z,99257.03
2023-05-19T03:30:46.231Z,99251.47
2023-05-19T03:33:13.320Z,99254.84
2023-05-19T03:35:40.421Z,99249.47
2023-05-19T03:38:07.365Z,99253.50
2023-05-19T03:40:34.502Z,99251.31
2023-05-19T03:43:01.537Z,99255.16
2023-05-19T03:45:28.728Z,99250.66
2023-05-19T03:47:56.451Z,99247.47
2023-05-19T03:50:23.719Z,99229.78
2023-05-19T03:52:50.709Z,99245.78
2023-05-19T03:55:20.343Z,99247.31
2023-05-19T03:57:47.624Z,99241.94
2023-05-19T04:00:15.294Z,99248.16
2023-05-19T04:02:42.361Z,99258.41
2023-05-19T04:05:10.062Z,99261.94
2023-05-19T04:07:37.062Z,99264.47
2023-05-19T04:10:06.043Z,99263.25
2023-05-19T04:12:33.264Z,99262.25
2023-05-19T04:15:00.417Z,99264.97
2023-05-19T04:17:28.051Z,99269.72
2023-05-19T04:19:55.524Z,99268.50
2023-05-19T04:22:22.830Z,99270.66
2023-05-19T04:24:51.862Z,99272.34
2023-05-19T04:27:19.718Z,99266.94
2023-05-19T04:29:48.652Z,99260.56
2023-05-19T04:32:18.153Z,99254.84
2023-05-19T04:34:47.906Z,99268.47
2023-05-19T04:37:18.310Z,99265.41
2023-05-19T04:39:45.699Z,99266.88
2023-05-19T04:42:13.627Z,99268.53
2023-05-19T04:44:40.880Z,99257.78
2023-05-19T04:47:09.116Z,99265.13
2023-05-19T04:49:39.174Z,99262.63
2023-05-19T04:52:13.298Z,99276.44
2023-05-19T04:54:40.456Z,99271.03
2023-05-19T04:57:07.598Z,99282.81
2023-05-19T04:59:34.833Z,99269.47
2023-05-19T05:02:01.901Z,99271.53
2023-05-19T05:04:28.915Z,99275.50
2023-05-19T05:06:55.824Z,99277.16
2023-05-19T05:09:22.837Z,99276.16
2023-05-19T05:11:50.065Z,99269.91
2023-05-19T05:14:17.381Z,99267.34
2023-05-19T05:16:44.822Z,99280.16
2023-05-19T05:19:12.357Z,99269.28
2023-05-19T05:21:39.758Z,99275.13
2023-05-19T05:24:07.305Z,99277.59
2023-05-19T05:26:35.738Z,99272.00
2023-05-19T05:29:04.198Z,99285.34
2023-05-19T05:31:31.798Z,99281.97
2023-05-19T05:33:59.076Z,99282.03
2023-05-19T05:36:26.124Z,99282.56
2023-05-19T05:38:53.083Z,99274.28
2023-05-19T05:41:19.985Z,99279.91
2023-05-19T05:43:46.984Z,99280.75
2023-05-19T05:46:13.978Z,99285.78
2023-05-19T05:48:42.926Z,99286.56
2023-05-19T05:51:10.270Z,99287.72
2023-05-19T05:53:45.087Z,99284.03
2023-05-19T05:56:12.892Z,99298.66
2023-05-19T05:58:40.922Z,99285.03
2023-05-19T06:01:11.617Z,99285.50
2023-05-19T06:03:42.911Z,99274.84
2023-05-19T06:06:10.398Z,99295.06
2023-05-19T06:08:37.877Z,99289.13
2023-05-19T06:11:09.636Z,99292.59
2023-05-19T06:13:37.142Z,99296.63
2023-05-19T06:16:04.589Z,99297.63
2023-05-19T06:18:31.599Z,99289.06
2023-05-19T06:20:58.817Z,99304.78
2023-05-19T06:23:27.062Z,99295.78
2023-05-19T06:25:54.022Z,99317.28
2023-05-19T06:28:21.198Z,99317.91
2023-05-19T06:30:48.255Z,99315.13
2023-05-19T06:33:15.327Z,99309.63
2023-05-19T06:35:42.261Z,99308.66
2023-05-19T06:38:09.227Z,99312.47
2023-05-19T06:40:37.276Z,99309.84
2023-05-19T06:43:05.117Z,99309.13
2023-05-19T06:45:32.186Z,99302.63
2023-05-19T06:47:59.145Z,99308.81
2023-05-19T06:50:26.554Z,99299.78
2023-05-19T06:52:53.521Z,99302.03
2023-05-19T06:55:20.562Z,99300.47
2023-05-19T06:57:47.522Z,99304.31
2023-05-19T07:00:17.620Z,99303.94
2023-05-19T07:02:45.711Z,99301.94
2023-05-19T07:05:12.998Z,99307.81
2023-05-19T07:07:39.939Z,99301.56
2023-05-19T07:10:07.461Z,99302.78
2023-05-19T07:12:34.406Z,99308.78
2023-05-19T07:15:01.316Z,99304.59
2023-05-19T07:17:28.288Z,99299.94
2023-05-19T07:19:55.267Z,99308.81
2023-05-19T07:22:22.493Z,99304.34
2023-05-19T07:24:49.480Z,99302.00
2023-05-19T07:27:16.455Z,99304.34
2023-05-19T07:29:43.415Z,99297.53
2023-05-19T07:32:10.416Z,99293.25
2023-05-19T07:34:37.874Z,99297.06
2023-05-19T07:37:05.112Z,99292.19
2023-05-19T07:39:32.615Z,99291.06
2023-05-19T07:41:59.640Z,99297.97
2023-05-19T07:44:27.390Z,99284.69
2023-05-19T07:46:54.858Z,99294.09
2023-05-19T07:49:21.780Z,99294.75
2023-05-19T07:51:48.869Z,99292.09
2023-05-19T07:54:16.097Z,99304.06
2023-05-19T07:56:43.052Z,99299.13
2023-05-19T07:59:10.488Z,99310.28
2023-05-19T08:01:37.670Z,99304.00
2023-05-19T08:04:05.766Z,99314.56
2023-05-19T08:06:32.807Z,99300.22
2023-05-19T08:08:59.916Z,99300.03
2023-05-19T08:11:27.024Z,99309.13
2023-05-19T08:13:53.932Z,99309.81
2023-05-19T08:16:21.043Z,99305.66
2023-05-19T08:18:48.117Z,99308.78
2023-05-19T08:21:15.127Z,99302.78
2023-05-19T08:23:42.067Z,99307.44
2023-05-19T08:26:09.111Z,99315.09
2023-05-19T08:28:36.367Z,99302.69
2023-05-19T08:31:03.393Z,99304.00
2023-05-19T08:33:30.431Z,99300.75
2023-05-19T08:35:58.412Z,99294.78
2023-05-19T08:38:26.693Z,99299.59
2023-05-19T08:40:53.833Z,99292.09
2023-05-19T08:43:21.022Z,99316.19
2023-05-19T08:45:48.580Z,99314.13
2023-05-19T08:48:18.259Z,99314.22
2023-05-19T08:51:26.074Z,99308.19
2023-05-19T08:54:00.640Z,99315.81
2023-05-19T08:56:28.428Z,99309.00
2023-05-19T08:59:00.508Z,99307.31
2023-05-19T09:01:29.201Z,99300.81
2023-05-19T09:03:56.500Z,99310.88
2023-05-19T09:06:23.696Z,99310.66
2023-05-19T09:08:50.641Z,99310.66
2023-05-19T09:11:17.577Z,99307.78
2023-05-19T09:13:44.555Z,99318.81
2023-05-19T09:16:12.002Z,99312.22
2023-05-19T09:18:41.002Z,99315.09
2023-05-19T09:21:10.498Z,99315.84
2023-05-19T09:23:37.689Z,99315.41
2023-05-19T09:26:08.610Z,99326.69
2023-05-19T09:28:37.075Z,99317.09
2023-05-19T09:31:11.400Z,99323.75
2023-05-19T09:33:45.487Z,99323.16
2023-05-19T09:36:13.012Z,99309.09
2023-05-19T09:38:40.557Z,99307.44
2023-05-19T09:41:09.630Z,99312.38
2023-05-19T09:43:37.022Z,99316.22
2023-05-19T09:46:09.224Z,99314.53
2023-05-19T09:48:38.165Z,99306.16
2023-05-19T09:51:08.237Z,99312.91
2023-05-19T09:53:35.656Z,99314.94
2023-05-19T09:56:04.329Z,99313.56
2023-05-19T09:58:35.655Z,99307.78
2023-05-19T10:01:04.094Z,99306.13
2023-05-19T10:03:33.233Z,99313.94
2023-05-19T10:06:02.262Z,99300.34
2023-05-19T10:08:31.063Z,99301.78
2023-05-19T10:10:59.506Z,99301.03
2023-05-19T10:13:28.613Z,99292.75
2023-05-19T10:15:58.914Z,99300.28
2023-05-19T10:18:28.030Z,99309.41
2023-05-19T10:20:58.282Z,99302.41
2023-05-19T10:23:25.806Z,99299.97
2023-05-19T10:25:57.034Z,99299.31
2023-05-19T10:28:28.364Z,99297.69
2023-05-19T10:31:00.684Z,99302.28
2023-05-19T10:33:54.831Z,99296.75
2023-05-19T10:36:48.910Z,99299.72
2023-05-19T10:39:28.680Z,99295.97
2023-05-19T10:42:31.829Z,99294.50
2023-05-19T10:45:16.527Z,99293.72
2023-05-19T10:47:44.911Z,99291.84
2023-05-19T10:50:12.626Z,99286.97
2023-05-19T10:52:40.778Z,99290.63
2023-05-19T10:55:10.361Z,99283.13
2023-05-19T10:57:37.396Z,99275.44
2023-05-19T11:00:26.731Z,99280.41
2023-05-19T11:02:56.568Z,99274.84
2023-05-19T11:05:30.097Z,99284.50
2023-05-19T11:08:06.372Z,99281.22
2023-05-19T11:10:33.517Z,99276.22
2023-05-19T11:13:01.063Z,99284.16
2023-05-19T11:15:28.799Z,99278.34
2023-05-19T11:17:56.076Z,99284.19
2023-05-19T11:20:28.498Z,99286.94
2023-05-19T11:23:02.683Z,99279.19
2023-05-19T11:25:49.769Z,99287.94
2023-05-19T11:28:25.893Z,99287.97
2023-05-19T11:30:55.333Z,99291.34
2023-05-19T11:33:27.515Z,99291.75
2023-05-19T11:35:59.676Z,99295.50
2023-05-19T11:38:28.798Z,99290.00
2023-05-19T11:40:57.083Z,99294.06
2023-05-19T11:43:25.205Z,99295.09
2023-05-19T11:45:53.535Z,99299.28
2023-05-19T11:48:23.754Z,99252.78
2023-05-19T11:50:51.240Z,99290.84
2023-05-19T11:53:20.072Z,99295.31
2023-05-19T11:55:49.176Z,99297.63
2023-05-19T11:58:17.174Z,99296.97
2023-05-19T12:00:48.011Z,99299.28
2023-05-19T12:03:15.634Z,99304.09
2023-05-19T12:05:49.166Z,99305.75
2023-05-19T12:08:19.957Z,99303.88
2023-05-19T12:10:51.709Z,99304.09
2023-05-19T12:13:19.889Z,99298.84
2023-05-19T12:15:47.085Z,99289.44
2023-05-19T12:18:14.322Z,99290.72
2023-05-19T12:20:41.626Z,99294.88
2023-05-19T12:23:09.242Z,99288.59
2023-05-19T12:25:36.694Z,99297.16
2023-05-19T12:28:04.797Z,99282.09
2023-05-19T12:30:33.619Z,99273.28
2023-05-19T12:33:02.916Z,99273.28
2023-05-19T12:35:32.370Z,99276.88
2023-05-19T12:38:03.922Z,99283.13
2023-05-19T12:40:31.100Z,99271.03
2023-05-19T12:42:59.410Z,99279.00
2023-05-19T12:45:28.664Z,99276.91
2023-05-19T12:47:56.476Z,99279.19
2023-05-19T12:50:31.521Z,99283.97
2023-05-19T12:53:00.101Z,99271.03
2023-05-19T12:55:27.377Z,99284.81
2023-05-19T12:57:58.482Z,99290.69
2023-05-19T13:00:28.847Z,99274.53
2023-05-19T13:03:05.347Z,99273.69
2023-05-19T13:05:35.569Z,99276.59
2023-05-19T13:08:06.354Z,99278.50
2023-05-19T13:10:35.175Z,99271.16
2023-05-19T13:13:03.570Z,99269.50
2023-05-19T13:15:34.585Z,99268.88
2023-05-19T13:18:12.478Z,99273.47
2023-05-19T13:20:40.973Z,99270.28
2023-05-19T13:23:10.287Z,99270.34
2023-05-19T13:25:37.285Z,99269.47
2023-05-19T13:28:06.088Z,99270.75
2023-05-19T13:30:34.937Z,99266.16
2023-05-19T13:33:02.577Z,99270.34
2023-05-19T13:35:29.736Z,99269.06
2023-05-19T13:37:56.810Z,99263.22
2023-05-19T13:40:24.438Z,99265.28
2023-05-19T13:42:51.418Z,99271.75
2023-05-19T13:45:18.606Z,99268.47
2023-05-19T13:47:45.701Z,99273.69
2023-05-19T13:50:12.891Z,99269.06
2023-05-19T13:52:39.853Z,99266.19
2023-05-19T13:55:07.974Z,99266.19
2023-05-19T13:57:35.590Z,99267.41
2023-05-19T14:00:04.028Z,99263.22
2023-05-19T14:02:31.534Z,99266.59
2023-05-19T14:04:58.537Z,99269.09
2023-05-19T14:07:25.998Z,99265.72
2023-05-19T14:09:53.181Z,99273.69
2023-05-19T14:12:23.326Z,99275.56
2023-05-19T14:14:54.968Z,99275.31
2023-05-19T14:17:21.899Z,99272.00
2023-05-19T14:19:48.866Z,99276.75
2023-05-19T14:22:15.897Z,99272.34
2023-05-19T14:24:42.786Z,99270.09
2023-05-19T14:27:09.759Z,99276.56
2023-05-19T14:29:36.778Z,99286.19
2023-05-19T14:32:04.202Z,99290.19
2023-05-19T14:34:31.177Z,99283.72
2023-05-19T14:36:58.170Z,99279.94
2023-05-19T14:39:25.104Z,99281.59
2023-05-19T14:41:53.169Z,99280.75
2023-05-19T14:44:20.149Z,99277.00
2023-05-19T14:46:47.156Z,99278.50
2023-05-19T14:49:14.246Z,99277.78
2023-05-19T14:51:41.220Z,99278.22
2023-05-19T14:54:08.197Z,99277.81
2023-05-19T14:56:35.243Z,99273.44
2023-05-19T14:59:02.259Z,99276.59
2023-05-19T15:01:29.228Z,99276.09
2023-05-19T15:03:56.475Z,99269.59
2023-05-19T15:06:23.774Z,99272.31
2023-05-19T15:08:50.778Z,99273.16
2023-05-19T15:11:17.717Z,99270.66
2023-05-19T15:13:44.835Z,99278.16
2023-05-19T15:18:41.676Z,99275.63
2023-05-19T15:21:08.607Z,99275.63
2023-05-19T15:23:35.618Z,99273.38
2023-05-19T15:26:02.674Z,99272.88
2023-05-19T15:28:29.733Z,99267.44
2023-05-19T15:30:56.787Z,99268.91
2023-05-19T15:33:23.862Z,99260.13
2023-05-19T15:35:52.405Z,99268.47
2023-05-19T15:38:19.988Z,99271.81
2023-05-19T15:40:47.133Z,99269.50
2023-05-19T15:43:15.018Z,99281.03
2023-05-19T15:45:42.069Z,99274.63
2023-05-19T15:48:09.161Z,99269.69
2023-05-19T15:50:36.786Z,99266.78
2023-05-19T15:53:03.947Z,99270.72
2023-05-19T15:55:31.108Z,99273.00
2023-05-19T15:57:58.090Z,99271.13
2023-05-19T16:00:24.990Z,99266.34
2023-05-19T16:02:51.977Z,99264.47
2023-05-19T16:05:19.050Z,99261.78
2023-05-19T16:07:46.149Z,99265.41
2023-05-19T16:10:13.111Z,99266.72
2023-05-19T16:12:40.078Z,99265.88
2023-05-19T16:15:07.543Z,99268.97
2023-05-19T16:17:35.060Z,99280.81
2023-05-19T16:20:02.126Z,99273.38
2023-05-19T16:22:30.445Z,99278.34
2023-05-19T16:24:57.511Z,99277.06
2023-05-19T16:27:24.528Z,99292.38
2023-05-19T16:29:51.554Z,99293.22
2023-05-19T16:32:18.494Z,99289.06
2023-05-19T16:34:45.414Z,99285.66
2023-05-19T16:37:12.470Z,99275.16
2023-05-19T16:39:40.442Z,99288.03
2023-05-19T16:42:07.600Z,99285.97
2023-05-19T16:44:34.604Z,99285.53
2023-05-19T16:47:01.540Z,99286.59
2023-05-19T16:49:28.578Z,99280.91
2023-05-19T16:51:56.143Z,99278.97
2023-05-19T16:54:23.630Z,99286.22
2023-05-19T16:56:51.504Z,99290.38
2023-05-19T16:59:19.179Z,99280.56
2023-05-19T17:01:46.421Z,99289.88
2023-05-19T17:04:13.538Z,99284.47
2023-05-19T17:06:40.608Z,99293.19
2023-05-19T17:09:07.539Z,99287.31
2023-05-19T17:11:34.521Z,99288.41
2023-05-19T17:14:04.362Z,99295.53
2023-05-19T17:16:31.419Z,99288.50
2023-05-19T17:18:58.376Z,99287.13
2023-05-19T17:21:25.419Z,99288.97
2023-05-19T17:23:52.520Z,99282.47
2023-05-19T17:26:19.714Z,99283.91
2023-05-19T17:28:46.640Z,99283.53
2023-05-19T17:31:14.466Z,99289.34
2023-05-19T17:33:41.657Z,99289.06
2023-05-19T17:36:09.430Z,99297.59
2023-05-19T17:38:40.467Z,99303.34
2023-05-19T17:41:13.282Z,99289.97
2023-05-19T17:43:41.800Z,99306.72
2023-05-19T17:46:09.554Z,99304.19
2023-05-19T17:48:36.730Z,99308.72
2023-05-19T17:51:05.815Z,99310.75
2023-05-19T17:53:33.579Z,99315.63
2023-05-19T17:56:03.222Z,99312.56
2023-05-19T17:58:30.520Z,99309.78
2023-05-19T18:00:57.787Z,99320.59
2023-05-19T18:03:25.237Z,99311.91
2023-05-19T18:05:52.541Z,99314.34
2023-05-19T18:08:19.991Z,99328.47
2023-05-19T18:10:48.793Z,99317.16
2023-05-19T18:13:16.016Z,99311.34
2023-05-19T18:15:43.192Z,99326.03
2023-05-19T18:18:11.231Z,99317.63
2023-05-19T18:20:39.609Z,99318.94
2023-05-19T18:23:06.724Z,99321.75
2023-05-19T18:25:33.771Z,99319.81
2023-05-19T18:28:01.062Z,99324.09
2023-05-19T18:30:28.158Z,99330.66
2023-05-19T18:32:55.213Z,99330.47
2023-05-19T18:35:22.427Z,99332.44
2023-05-19T18:37:49.521Z,99323.53
2023-05-19T18:40:16.707Z,99325.41
2023-05-19T18:42:43.637Z,99325.06
2023-05-19T18:45:10.924Z,99337.25
2023-05-19T18:47:37.985Z,99326.81
2023-05-19T18:50:05.574Z,99335.50
2023-05-19T18:52:32.778Z,99351.75
2023-05-19T18:55:01.447Z,99345.88
2023-05-19T18:57:28.429Z,99365.00
2023-05-19T18:59:55.489Z,99344.84
2023-05-19T19:02:22.545Z,99361.56
2023-05-19T19:04:49.635Z,99367.25
2023-05-19T19:07:16.869Z,99352.47
2023-05-19T19:09:44.042Z,99358.75
2023-05-19T19:12:11.312Z,99354.19
2023-05-19T19:14:38.825Z,99362.13
2023-05-19T19:17:06.313Z,99367.03
2023-05-19T19:19:33.523Z,99360.31
2023-05-19T19:22:00.586Z,99366.59
2023-05-19T19:24:28.701Z,99374.81
2023-05-19T19:26:55.745Z,99360.81
2023-05-19T19:29:22.782Z,99359.97
2023-05-19T19:31:49.829Z,99352.31
2023-05-19T19:34:19.977Z,99361.53
2023-05-19T19:36:48.086Z,99354.75
2023-05-19T19:39:15.098Z,99363.66
2023-05-19T19:41:42.122Z,99354.53
2023-05-19T19:44:09.257Z,99357.53
2023-05-19T19:46:36.272Z,99349.03
2023-05-19T19:49:03.274Z,99357.16
2023-05-19T19:51:31.779Z,99351.09
2023-05-19T19:53:59.299Z,99357.06
2023-05-19T19:56:28.547Z,99357.53
2023-05-19T19:58:59.329Z,99350.81
2023-05-19T20:01:28.454Z,99351.81
2023-05-19T20:03:57.874Z,99352.22
2023-05-19T20:06:26.475Z,99357.34
2023-05-19T20:08:54.918Z,99351.53
2023-05-19T20:11:24.511Z,99349.78
2023-05-19T20:13:52.829Z,99349.59
2023-05-19T20:16:20.191Z,99341.81
2023-05-19T20:18:47.256Z,99335.09
2023-05-19T20:21:14.360Z,99346.00
2023-05-19T20:23:41.384Z,99351.03
2023-05-19T20:26:11.806Z,99348.00
2023-05-19T20:28:39.890Z,99320.38
2023-05-19T20:31:07.173Z,99343.50
2023-05-19T20:33:34.232Z,99344.34
2023-05-19T20:36:01.661Z,99336.25
2023-05-19T20:38:28.691Z,99331.75
2023-05-19T20:40:55.924Z,99344.53
2023-05-19T20:43:23.226Z,99343.97
2023-05-19T20:45:50.423Z,99330.72
2023-05-19T20:48:17.437Z,99331.88
2023-05-19T20:50:44.420Z,99331.88
2023-05-19T20:53:11.548Z,99330.53
2023-05-19T20:55:41.524Z,99331.75
2023-05-19T20:58:08.417Z,99337.81
2023-05-19T21:00:35.678Z,99340.59
2023-05-19T21:03:03.130Z,99330.81
2023-05-19T21:05:30.359Z,99334.91
2023-05-19T21:07:57.638Z,99331.91
2023-05-19T21:10:24.687Z,99338.41
2023-05-19T21:12:51.684Z,99326.88
2023-05-19T21:15:18.853Z,99330.72
2023-05-19T21:17:46.874Z,99326.44
2023-05-19T21:20:14.022Z,99314.75
2023-05-19T21:22:41.306Z,99322.41
2023-05-19T21:25:08.665Z,99336.97
2023-05-19T21:27:36.551Z,99335.28
2023-05-19T21:30:03.759Z,99336.00
2023-05-19T21:32:30.899Z,99342.72
2023-05-19T21:34:57.918Z,99337.81
2023-05-19T21:37:25.084Z,99336.28
2023-05-19T21:39:51.992Z,99339.63
2023-05-19T21:42:18.976Z,99334.81
2023-05-19T21:44:46.099Z,99336.69
2023-05-19T21:47:13.388Z,99329.50
2023-05-19T21:49:40.931Z,99336.00
2023-05-19T21:52:08.492Z,99313.38
2023-05-19T21:54:36.481Z,99338.78
2023-05-19T21:57:03.976Z,99342.50
2023-05-19T21:59:31.385Z,99339.09
2023-05-19T22:01:58.792Z,99343.34
2023-05-19T22:04:25.844Z,99344.03
2023-05-19T22:06:53.290Z,99349.59
2023-05-19T22:09:20.285Z,99338.41
2023-05-19T22:11:47.236Z,99337.69
2023-05-19T22:14:14.295Z,99339.72
2023-05-19T22:16:41.358Z,99337.56
2023-05-19T22:19:08.426Z,99341.41
2023-05-19T22:21:35.496Z,99339.09
2023-05-19T22:24:02.736Z,99343.34
2023-05-19T22:26:29.750Z,99343.91
2023-05-19T22:28:56.787Z,99331.34
2023-05-19T22:31:23.797Z,99343.91
2023-05-19T22:33:50.856Z,99337.56
2023-05-19T22:36:17.856Z,99335.47
2023-05-19T22:38:44.853Z,99338.88
2023-05-19T22:41:11.832Z,99319.72
2023-05-19T22:43:38.849Z,99327.03
2023-05-19T22:46:06.213Z,99328.22
2023-05-19T22:48:33.232Z,99322.09
2023-05-19T22:51:00.248Z,99328.97
2023-05-19T22:53:27.308Z,99324.88
2023-05-19T22:55:54.279Z,99327.41
2023-05-19T22:58:21.226Z,99320.88
2023-05-19T23:00:48.215Z,99318.91
2023-05-19T23:03:15.274Z,99321.25
2023-05-19T23:05:43.397Z,99315.47
2023-05-19T23:08:10.333Z,99316.69
2023-05-19T23:10:37.283Z,99312.47
2023-05-19T23:13:04.205Z,99305.19
2023-05-19T23:15:31.141Z,99318.47
2023-05-19T23:17:58.222Z,99316.13
2023-05-19T23:20:25.272Z,99317.22
2023-05-19T23:22:52.222Z,99317.22
2023-05-19T23:25:19.204Z,99312.66
2023-05-19T23:27:46.821Z,99317.41
2023-05-19T23:30:13.779Z,99313.50
2023-05-19T23:32:41.302Z,99312.59
2023-05-19T23:35:16.887Z,99311.38
2023-05-19T23:37:43.918Z,99300.56
2023-05-19T23:40:11.777Z,99305.97
2023-05-19T23:42:38.777Z,99315.38
2023-05-19T23:45:06.237Z,99300.53
2023-05-19T23:47:33.242Z,99311.63
2023-05-19T23:50:00.197Z,99303.50
2023-05-19T23:52:27.414Z,99296.63
2023-05-19T23:54:54.440Z,99303.88
2023-05-19T23:57:21.663Z,99300.81
2023-05-19T23:59:48.759Z,99297.56
